sensor_id;sensor_type;location;lat;lon;timestamp;temperature;humidity
52979;DHT22;63430;53.186;6.598;2022-12-18T00:01:45;-3.00;99.90
52979;DHT22;63430;53.186;6.598;2022-12-18T00:03:51;-2.90;99.90
52979;DHT22;63430;53.186;6.598;2022-12-18T00:05:54;-3.00;99.90
52979;DHT22;63430;53.186;6.598;2022-12-18T00:07:56;-3.00;99.90
52979;DHT22;63430;53.186;6.598;2022-12-18T00:09:59;-3.00;99.90
52979;DHT22;63430;53.186;6.598;2022-12-18T00:12:02;-3.00;99.90
52979;DHT22;63430;53.186;6.598;2022-12-18T00:14:16;-3.00;99.90
52979;DHT22;63430;53.186;6.598;2022-12-18T00:16:21;-3.00;99.90
52979;DHT22;63430;53.186;6.598;2022-12-18T00:18:24;-3.00;99.90
52979;DHT22;63430;53.186;6.598;2022-12-18T00:20:29;-2.00;99.90
52979;DHT22;63430;53.186;6.598;2022-12-18T00:22:32;-3.00;99.90
52979;DHT22;63430;53.186;6.598;2022-12-18T00:24:35;-3.00;99.90
52979;DHT22;63430;53.186;6.598;2022-12-18T00:26:38;-3.00;99.90
52979;DHT22;63430;53.186;6.598;2022-12-18T00:28:41;-3.00;99.90
52979;DHT22;63430;53.186;6.598;2022-12-18T00:30:45;-3.10;99.90
52979;DHT22;63430;53.186;6.598;2022-12-18T00:32:48;-3.00;99.90
52979;DHT22;63430;53.186;6.598;2022-12-18T00:34:51;-2.00;99.90
52979;DHT22;63430;53.186;6.598;2022-12-18T00:36:56;-3.10;99.90
52979;DHT22;63430;53.186;6.598;2022-12-18T00:39:00;-3.10;99.90
52979;DHT22;63430;53.186;6.598;2022-12-18T00:41:03;-3.10;99.90
52979;DHT22;63430;53.186;6.598;2022-12-18T00:43:05;-3.10;99.90
52979;DHT22;63430;53.186;6.598;2022-12-18T00:45:11;-3.10;99.90
52979;DHT22;63430;53.186;6.598;2022-12-18T00:47:15;-3.10;99.90
52979;DHT22;63430;53.186;6.598;2022-12-18T00:49:19;-2.40;99.90
52979;DHT22;63430;53.186;6.598;2022-12-18T00:51:22;-3.10;99.90
52979;DHT22;63430;53.186;6.598;2022-12-18T00:53:27;-3.10;99.90
52979;DHT22;63430;53.186;6.598;2022-12-18T00:55:31;-3.10;99.90
52979;DHT22;63430;53.186;6.598;2022-12-18T00:57:33;-3.20;99.90
52979;DHT22;63430;53.186;6.598;2022-12-18T00:59:36;-3.20;99.90
52979;DHT22;63430;53.186;6.598;2022-12-18T01:01:38;-3.20;99.90
52979;DHT22;63430;53.186;6.598;2022-12-18T01:03:41;-3.20;99.90
52979;DHT22;63430;53.186;6.598;2022-12-18T01:05:44;-3.20;99.90
52979;DHT22;63430;53.186;6.598;2022-12-18T01:07:46;-3.20;99.90
52979;DHT22;63430;53.186;6.598;2022-12-18T01:09:51;-3.20;99.90
52979;DHT22;63430;53.186;6.598;2022-12-18T01:11:54;-3.20;99.90
52979;DHT22;63430;53.186;6.598;2022-12-18T01:14:00;-3.20;99.90
52979;DHT22;63430;53.186;6.598;2022-12-18T01:16:02;-3.20;99.90
52979;DHT22;63430;53.186;6.598;2022-12-18T01:18:05;-3.20;99.90
52979;DHT22;63430;53.186;6.598;2022-12-18T01:20:10;-3.20;99.90
52979;DHT22;63430;53.186;6.598;2022-12-18T01:22:15;-3.30;99.90
52979;DHT22;63430;53.186;6.598;2022-12-18T01:24:19;-3.30;99.90
52979;DHT22;63430;53.186;6.598;2022-12-18T01:26:26;-3.30;99.90
52979;DHT22;63430;53.186;6.598;2022-12-18T01:28:42;-3.40;99.90
52979;DHT22;63430;53.186;6.598;2022-12-18T01:30:45;-3.40;99.90
52979;DHT22;63430;53.186;6.598;2022-12-18T01:32:48;-3.40;99.90
52979;DHT22;63430;53.186;6.598;2022-12-18T01:34:51;-3.20;99.90
52979;DHT22;63430;53.186;6.598;2022-12-18T01:36:54;-3.50;99.90
52979;DHT22;63430;53.186;6.598;2022-12-18T01:38:59;-3.50;99.90
52979;DHT22;63430;53.186;6.598;2022-12-18T01:41:02;-2.70;99.90
52979;DHT22;63430;53.186;6.598;2022-12-18T01:43:09;-3.60;99.90
52979;DHT22;63430;53.186;6.598;2022-12-18T01:45:26;-3.60;99.90
52979;DHT22;63430;53.186;6.598;2022-12-18T01:47:33;-3.60;99.90
52979;DHT22;63430;53.186;6.598;2022-12-18T01:49:37;-3.60;99.90
52979;DHT22;63430;53.186;6.598;2022-12-18T01:51:39;-3.70;99.90
52979;DHT22;63430;53.186;6.598;2022-12-18T01:53:44;-3.70;99.90
52979;DHT22;63430;53.186;6.598;2022-12-18T01:55:49;-3.70;99.90
52979;DHT22;63430;53.186;6.598;2022-12-18T01:57:54;-4.00;99.90
52979;DHT22;63430;53.186;6.598;2022-12-18T02:00:04;-3.40;99.90
52979;DHT22;63430;53.186;6.598;2022-12-18T02:02:14;-3.70;99.90
52979;DHT22;63430;53.186;6.598;2022-12-18T02:04:26;-3.80;99.90
52979;DHT22;63430;53.186;6.598;2022-12-18T02:06:31;-3.90;99.90
52979;DHT22;63430;53.186;6.598;2022-12-18T02:08:40;-3.80;99.90
52979;DHT22;63430;53.186;6.598;2022-12-18T02:10:53;-3.80;99.90
52979;DHT22;63430;53.186;6.598;2022-12-18T02:13:05;-3.80;99.90
52979;DHT22;63430;53.186;6.598;2022-12-18T02:15:16;-3.80;99.90
52979;DHT22;63430;53.186;6.598;2022-12-18T02:17:22;-3.80;99.90
52979;DHT22;63430;53.186;6.598;2022-12-18T02:19:55;-3.90;99.90
52979;DHT22;63430;53.186;6.598;2022-12-18T02:22:15;-3.90;99.90
52979;DHT22;63430;53.186;6.598;2022-12-18T02:24:29;-3.90;99.90
52979;DHT22;63430;53.186;6.598;2022-12-18T02:26:48;-4.00;99.90
52979;DHT22;63430;53.186;6.598;2022-12-18T02:28:59;-4.00;99.90
52979;DHT22;63430;53.186;6.598;2022-12-18T02:31:07;-4.00;99.90
52979;DHT22;63430;53.186;6.598;2022-12-18T02:33:11;-4.00;99.90
52979;DHT22;63430;53.186;6.598;2022-12-18T02:35:17;-4.00;99.90
52979;DHT22;63430;53.186;6.598;2022-12-18T02:37:24;-4.10;99.90
52979;DHT22;63430;53.186;6.598;2022-12-18T02:39:29;-4.00;99.90
52979;DHT22;63430;53.186;6.598;2022-12-18T02:41:37;-4.10;99.90
52979;DHT22;63430;53.186;6.598;2022-12-18T02:43:53;-4.10;99.90
52979;DHT22;63430;53.186;6.598;2022-12-18T02:45:59;-4.10;99.90
52979;DHT22;63430;53.186;6.598;2022-12-18T02:48:08;-3.50;99.90
52979;DHT22;63430;53.186;6.598;2022-12-18T02:50:16;-4.00;99.90
52979;DHT22;63430;53.186;6.598;2022-12-18T02:52:30;-4.00;99.90
52979;DHT22;63430;53.186;6.598;2022-12-18T02:54:51;-4.00;99.90
52979;DHT22;63430;53.186;6.598;2022-12-18T02:57:05;-4.00;99.90
52979;DHT22;63430;53.186;6.598;2022-12-18T02:59:15;-4.10;99.90
52979;DHT22;63430;53.186;6.598;2022-12-18T03:01:33;-3.20;99.90
52979;DHT22;63430;53.186;6.598;2022-12-18T03:03:41;-4.10;99.90
52979;DHT22;63430;53.186;6.598;2022-12-18T03:05:47;-4.10;99.90
52979;DHT22;63430;53.186;6.598;2022-12-18T03:07:58;-4.10;99.90
52979;DHT22;63430;53.186;6.598;2022-12-18T03:10:07;-4.10;99.90
52979;DHT22;63430;53.186;6.598;2022-12-18T03:12:16;-4.10;99.90
52979;DHT22;63430;53.186;6.598;2022-12-18T03:14:34;-4.10;99.90
52979;DHT22;63430;53.186;6.598;2022-12-18T03:16:41;-4.10;99.90
52979;DHT22;63430;53.186;6.598;2022-12-18T03:18:50;-4.10;99.90
52979;DHT22;63430;53.186;6.598;2022-12-18T03:20:56;-4.20;99.90
52979;DHT22;63430;53.186;6.598;2022-12-18T03:23:05;-4.20;99.90
52979;DHT22;63430;53.186;6.598;2022-12-18T03:25:13;-4.20;99.90
52979;DHT22;63430;53.186;6.598;2022-12-18T03:27:18;-4.20;99.90
52979;DHT22;63430;53.186;6.598;2022-12-18T03:29:26;-4.20;99.90
52979;DHT22;63430;53.186;6.598;2022-12-18T03:31:37;-4.20;99.90
52979;DHT22;63430;53.186;6.598;2022-12-18T03:33:45;-4.30;99.90
52979;DHT22;63430;53.186;6.598;2022-12-18T03:35:50;-4.20;99.90
52979;DHT22;63430;53.186;6.598;2022-12-18T03:37:53;-4.30;99.90
52979;DHT22;63430;53.186;6.598;2022-12-18T03:39:57;-4.30;99.90
52979;DHT22;63430;53.186;6.598;2022-12-18T03:42:04;-4.30;99.90
52979;DHT22;63430;53.186;6.598;2022-12-18T03:44:14;-4.30;99.90
52979;DHT22;63430;53.186;6.598;2022-12-18T03:46:26;-4.30;99.90
52979;DHT22;63430;53.186;6.598;2022-12-18T03:48:37;-4.30;99.90
52979;DHT22;63430;53.186;6.598;2022-12-18T03:50:46;-4.40;99.90
52979;DHT22;63430;53.186;6.598;2022-12-18T03:52:57;-4.40;99.90
52979;DHT22;63430;53.186;6.598;2022-12-18T03:55:04;-4.40;99.90
52979;DHT22;63430;53.186;6.598;2022-12-18T03:57:13;-4.40;99.90
52979;DHT22;63430;53.186;6.598;2022-12-18T03:59:19;-4.40;99.90
52979;DHT22;63430;53.186;6.598;2022-12-18T04:01:26;-4.40;99.90
52979;DHT22;63430;53.186;6.598;2022-12-18T04:03:34;-4.40;99.90
52979;DHT22;63430;53.186;6.598;2022-12-18T04:05:38;-4.50;99.90
52979;DHT22;63430;53.186;6.598;2022-12-18T04:07:43;-4.50;99.90
52979;DHT22;63430;53.186;6.598;2022-12-18T04:09:48;-4.50;99.90
52979;DHT22;63430;53.186;6.598;2022-12-18T04:11:53;-4.50;99.90
52979;DHT22;63430;53.186;6.598;2022-12-18T04:13:57;-4.50;99.90
52979;DHT22;63430;53.186;6.598;2022-12-18T04:16:00;-4.50;99.90
52979;DHT22;63430;53.186;6.598;2022-12-18T04:18:03;-6.30;99.90
52979;DHT22;63430;53.186;6.598;2022-12-18T04:20:17;-4.20;99.90
52979;DHT22;63430;53.186;6.598;2022-12-18T04:22:20;-4.50;99.90
52979;DHT22;63430;53.186;6.598;2022-12-18T04:24:28;-4.60;99.90
52979;DHT22;63430;53.186;6.598;2022-12-18T04:26:45;-4.60;99.90
52979;DHT22;63430;53.186;6.598;2022-12-18T04:28:59;-4.60;99.90
52979;DHT22;63430;53.186;6.598;2022-12-18T04:31:03;-4.60;99.90
52979;DHT22;63430;53.186;6.598;2022-12-18T04:33:08;-4.60;99.90
52979;DHT22;63430;53.186;6.598;2022-12-18T04:35:11;-4.60;99.90
52979;DHT22;63430;53.186;6.598;2022-12-18T04:37:23;-4.60;99.90
52979;DHT22;63430;53.186;6.598;2022-12-18T04:39:26;-4.70;99.90
52979;DHT22;63430;53.186;6.598;2022-12-18T04:41:32;-4.60;99.90
52979;DHT22;63430;53.186;6.598;2022-12-18T04:43:38;-4.60;99.90
52979;DHT22;63430;53.186;6.598;2022-12-18T04:45:42;-4.70;99.90
52979;DHT22;63430;53.186;6.598;2022-12-18T04:47:44;-4.60;99.90
52979;DHT22;63430;53.186;6.598;2022-12-18T04:49:48;-4.70;99.90
52979;DHT22;63430;53.186;6.598;2022-12-18T04:51:50;-3.20;99.90
52979;DHT22;63430;53.186;6.598;2022-12-18T04:53:56;-4.70;99.90
52979;DHT22;63430;53.186;6.598;2022-12-18T04:56:07;-3.00;99.90
52979;DHT22;63430;53.186;6.598;2022-12-18T04:58:09;-4.70;99.90
52979;DHT22;63430;53.186;6.598;2022-12-18T05:00:13;-4.80;99.90
52979;DHT22;63430;53.186;6.598;2022-12-18T05:02:16;-4.80;99.90
52979;DHT22;63430;53.186;6.598;2022-12-18T05:04:18;-4.80;99.90
52979;DHT22;63430;53.186;6.598;2022-12-18T05:06:21;-4.80;99.90
52979;DHT22;63430;53.186;6.598;2022-12-18T05:08:24;-4.80;99.90
52979;DHT22;63430;53.186;6.598;2022-12-18T05:10:29;-4.80;99.90
52979;DHT22;63430;53.186;6.598;2022-12-18T05:12:39;-4.80;99.90
52979;DHT22;63430;53.186;6.598;2022-12-18T05:15:04;-4.80;99.90
52979;DHT22;63430;53.186;6.598;2022-12-18T05:17:08;-4.80;99.90
52979;DHT22;63430;53.186;6.598;2022-12-18T05:19:10;-4.80;99.90
52979;DHT22;63430;53.186;6.598;2022-12-18T05:21:14;-4.90;99.90
52979;DHT22;63430;53.186;6.598;2022-12-18T05:23:16;-4.60;99.90
52979;DHT22;63430;53.186;6.598;2022-12-18T05:25:19;-4.80;99.90
52979;DHT22;63430;53.186;6.598;2022-12-18T05:27:25;-4.80;99.90
52979;DHT22;63430;53.186;6.598;2022-12-18T05:29:30;-4.90;99.90
52979;DHT22;63430;53.186;6.598;2022-12-18T05:31:33;-4.80;99.90
52979;DHT22;63430;53.186;6.598;2022-12-18T05:33:40;-4.90;99.90
52979;DHT22;63430;53.186;6.598;2022-12-18T05:35:50;-4.90;99.90
52979;DHT22;63430;53.186;6.598;2022-12-18T05:37:52;-3.30;99.90
52979;DHT22;63430;53.186;6.598;2022-12-18T05:39:55;-4.70;99.90
52979;DHT22;63430;53.186;6.598;2022-12-18T05:41:57;-4.90;99.90
52979;DHT22;63430;53.186;6.598;2022-12-18T05:44:06;-4.90;99.90
52979;DHT22;63430;53.186;6.598;2022-12-18T05:46:13;-3.70;99.90
52979;DHT22;63430;53.186;6.598;2022-12-18T05:48:16;-4.90;99.90
52979;DHT22;63430;53.186;6.598;2022-12-18T05:50:20;-4.90;99.90
52979;DHT22;63430;53.186;6.598;2022-12-18T05:52:24;-4.90;99.90
52979;DHT22;63430;53.186;6.598;2022-12-18T05:54:28;-4.90;99.90
52979;DHT22;63430;53.186;6.598;2022-12-18T05:56:33;-4.90;99.90
52979;DHT22;63430;53.186;6.598;2022-12-18T05:58:35;-5.00;99.90
52979;DHT22;63430;53.186;6.598;2022-12-18T06:00:42;-5.00;99.90
52979;DHT22;63430;53.186;6.598;2022-12-18T06:02:47;-4.90;99.90
52979;DHT22;63430;53.186;6.598;2022-12-18T06:04:49;-5.00;99.90
52979;DHT22;63430;53.186;6.598;2022-12-18T06:06:52;-5.00;99.90
52979;DHT22;63430;53.186;6.598;2022-12-18T06:08:55;-5.00;99.90
52979;DHT22;63430;53.186;6.598;2022-12-18T06:10:59;-5.00;99.90
52979;DHT22;63430;53.186;6.598;2022-12-18T06:13:02;-5.00;99.90
52979;DHT22;63430;53.186;6.598;2022-12-18T06:15:06;-5.00;99.90
52979;DHT22;63430;53.186;6.598;2022-12-18T06:17:11;-5.00;99.90
52979;DHT22;63430;53.186;6.598;2022-12-18T06:19:15;-5.00;99.90
52979;DHT22;63430;53.186;6.598;2022-12-18T06:21:18;-5.00;99.90
52979;DHT22;63430;53.186;6.598;2022-12-18T06:23:20;-5.00;99.90
52979;DHT22;63430;53.186;6.598;2022-12-18T06:25:23;-5.00;99.90
52979;DHT22;63430;53.186;6.598;2022-12-18T06:27:26;-5.10;99.90
52979;DHT22;63430;53.186;6.598;2022-12-18T06:29:29;-5.10;99.90
52979;DHT22;63430;53.186;6.598;2022-12-18T06:31:31;-5.90;99.90
52979;DHT22;63430;53.186;6.598;2022-12-18T06:33:40;-6.30;99.90
52979;DHT22;63430;53.186;6.598;2022-12-18T06:35:43;-3.60;99.90
52979;DHT22;63430;53.186;6.598;2022-12-18T06:37:45;-5.10;99.90
52979;DHT22;63430;53.186;6.598;2022-12-18T06:39:48;-5.10;99.90
52979;DHT22;63430;53.186;6.598;2022-12-18T06:41:51;-5.10;99.90
52979;DHT22;63430;53.186;6.598;2022-12-18T06:43:53;-5.20;99.90
52979;DHT22;63430;53.186;6.598;2022-12-18T06:46:02;-5.20;99.90
52979;DHT22;63430;53.186;6.598;2022-12-18T06:48:05;-5.20;99.90
52979;DHT22;63430;53.186;6.598;2022-12-18T06:50:11;-5.20;99.90
52979;DHT22;63430;53.186;6.598;2022-12-18T06:52:17;-5.20;99.90
52979;DHT22;63430;53.186;6.598;2022-12-18T06:54:20;-5.20;99.90
52979;DHT22;63430;53.186;6.598;2022-12-18T06:56:23;-5.20;99.90
52979;DHT22;63430;53.186;6.598;2022-12-18T06:58:26;-5.20;99.90
52979;DHT22;63430;53.186;6.598;2022-12-18T07:00:29;-5.10;99.90
52979;DHT22;63430;53.186;6.598;2022-12-18T07:02:33;-3.40;99.90
52979;DHT22;63430;53.186;6.598;2022-12-18T07:04:36;-5.20;99.90
52979;DHT22;63430;53.186;6.598;2022-12-18T07:06:44;-5.20;99.90
52979;DHT22;63430;53.186;6.598;2022-12-18T07:08:47;-5.20;99.90
52979;DHT22;63430;53.186;6.598;2022-12-18T07:10:50;-3.80;99.90
52979;DHT22;63430;53.186;6.598;2022-12-18T07:12:57;-5.20;99.90
52979;DHT22;63430;53.186;6.598;2022-12-18T07:15:08;-5.20;99.90
52979;DHT22;63430;53.186;6.598;2022-12-18T07:17:11;-5.20;99.90
52979;DHT22;63430;53.186;6.598;2022-12-18T07:19:17;-3.90;99.90
52979;DHT22;63430;53.186;6.598;2022-12-18T07:21:24;-5.10;99.90
52979;DHT22;63430;53.186;6.598;2022-12-18T07:23:29;-5.20;99.90
52979;DHT22;63430;53.186;6.598;2022-12-18T07:25:33;-5.10;99.90
52979;DHT22;63430;53.186;6.598;2022-12-18T07:27:36;-5.10;99.90
52979;DHT22;63430;53.186;6.598;2022-12-18T07:29:39;-5.10;99.90
52979;DHT22;63430;53.186;6.598;2022-12-18T07:31:41;-5.10;99.90
52979;DHT22;63430;53.186;6.598;2022-12-18T07:33:44;-5.10;99.90
52979;DHT22;63430;53.186;6.598;2022-12-18T07:35:47;-5.10;99.90
52979;DHT22;63430;53.186;6.598;2022-12-18T07:37:49;-5.10;99.90
52979;DHT22;63430;53.186;6.598;2022-12-18T07:39:56;-3.20;99.90
52979;DHT22;63430;53.186;6.598;2022-12-18T07:41:59;-4.30;99.90
52979;DHT22;63430;53.186;6.598;2022-12-18T07:44:22;-5.10;99.90
52979;DHT22;63430;53.186;6.598;2022-12-18T07:46:25;-5.10;99.90
52979;DHT22;63430;53.186;6.598;2022-12-18T07:48:27;-3.60;99.90
52979;DHT22;63430;53.186;6.598;2022-12-18T07:50:31;-5.10;99.90
52979;DHT22;63430;53.186;6.598;2022-12-18T07:52:35;-5.10;99.90
52979;DHT22;63430;53.186;6.598;2022-12-18T07:54:37;-5.10;99.90
52979;DHT22;63430;53.186;6.598;2022-12-18T07:56:43;-5.10;99.90
52979;DHT22;63430;53.186;6.598;2022-12-18T07:58:49;-5.10;99.90
52979;DHT22;63430;53.186;6.598;2022-12-18T08:00:51;-5.10;99.90
52979;DHT22;63430;53.186;6.598;2022-12-18T08:02:54;-5.10;99.90
52979;DHT22;63430;53.186;6.598;2022-12-18T08:04:57;-5.10;99.90
52979;DHT22;63430;53.186;6.598;2022-12-18T08:07:00;-5.10;99.90
52979;DHT22;63430;53.186;6.598;2022-12-18T08:09:03;-5.10;99.90
52979;DHT22;63430;53.186;6.598;2022-12-18T08:11:06;-5.10;99.90
52979;DHT22;63430;53.186;6.598;2022-12-18T08:13:12;-5.10;99.90
52979;DHT22;63430;53.186;6.598;2022-12-18T08:15:18;-5.10;99.90
52979;DHT22;63430;53.186;6.598;2022-12-18T08:17:21;-5.10;99.90
52979;DHT22;63430;53.186;6.598;2022-12-18T08:19:26;-5.10;99.90
52979;DHT22;63430;53.186;6.598;2022-12-18T08:21:31;-5.00;99.90
52979;DHT22;63430;53.186;6.598;2022-12-18T08:23:33;-5.10;99.90
52979;DHT22;63430;53.186;6.598;2022-12-18T08:25:43;-6.40;99.90
52979;DHT22;63430;53.186;6.598;2022-12-18T08:27:46;-5.10;99.90
52979;DHT22;63430;53.186;6.598;2022-12-18T08:29:52;-5.00;99.90
52979;DHT22;63430;53.186;6.598;2022-12-18T08:31:54;-5.10;99.90
52979;DHT22;63430;53.186;6.598;2022-12-18T08:33:57;-1.20;99.90
52979;DHT22;63430;53.186;6.598;2022-12-18T08:36:03;-5.00;99.90
52979;DHT22;63430;53.186;6.598;2022-12-18T08:38:06;-5.00;99.90
52979;DHT22;63430;53.186;6.598;2022-12-18T08:40:11;-5.10;99.90
52979;DHT22;63430;53.186;6.598;2022-12-18T08:42:15;-5.00;99.90
52979;DHT22;63430;53.186;6.598;2022-12-18T08:44:38;-5.10;99.90
52979;DHT22;63430;53.186;6.598;2022-12-18T08:46:44;-5.10;99.90
52979;DHT22;63430;53.186;6.598;2022-12-18T08:48:47;-4.10;99.90
52979;DHT22;63430;53.186;6.598;2022-12-18T08:50:59;-5.10;99.90
52979;DHT22;63430;53.186;6.598;2022-12-18T08:53:02;-5.00;99.90
52979;DHT22;63430;53.186;6.598;2022-12-18T08:55:08;-5.00;99.90
52979;DHT22;63430;53.186;6.598;2022-12-18T08:57:10;-5.00;99.90
52979;DHT22;63430;53.186;6.598;2022-12-18T08:59:13;-5.00;99.90
52979;DHT22;63430;53.186;6.598;2022-12-18T09:01:30;-5.00;99.90
52979;DHT22;63430;53.186;6.598;2022-12-18T09:03:36;-4.90;99.90
52979;DHT22;63430;53.186;6.598;2022-12-18T09:05:39;-4.90;99.90
52979;DHT22;63430;53.186;6.598;2022-12-18T09:07:42;-4.90;99.90
52979;DHT22;63430;53.186;6.598;2022-12-18T09:09:47;-4.80;99.90
52979;DHT22;63430;53.186;6.598;2022-12-18T09:11:52;-4.80;99.90
52979;DHT22;63430;53.186;6.598;2022-12-18T09:13:55;-4.80;99.90
52979;DHT22;63430;53.186;6.598;2022-12-18T09:15:58;-4.70;99.90
52979;DHT22;63430;53.186;6.598;2022-12-18T09:18:04;-4.70;99.90
52979;DHT22;63430;53.186;6.598;2022-12-18T09:20:10;-4.60;99.90
52979;DHT22;63430;53.186;6.598;2022-12-18T09:22:12;-4.50;99.90
52979;DHT22;63430;53.186;6.598;2022-12-18T09:24:16;-4.50;99.90
52979;DHT22;63430;53.186;6.598;2022-12-18T09:26:19;-4.50;99.90
52979;DHT22;63430;53.186;6.598;2022-12-18T09:28:22;-4.40;99.90
52979;DHT22;63430;53.186;6.598;2022-12-18T09:30:24;-4.00;99.90
52979;DHT22;63430;53.186;6.598;2022-12-18T09:32:30;-4.30;99.90
52979;DHT22;63430;53.186;6.598;2022-12-18T09:34:33;-4.30;99.90
52979;DHT22;63430;53.186;6.598;2022-12-18T09:36:38;-4.20;99.90
52979;DHT22;63430;53.186;6.598;2022-12-18T09:38:41;-4.10;99.90
52979;DHT22;63430;53.186;6.598;2022-12-18T09:40:45;-4.10;99.90
52979;DHT22;63430;53.186;6.598;2022-12-18T09:42:55;-4.10;99.90
52979;DHT22;63430;53.186;6.598;2022-12-18T09:45:02;-4.00;99.90
52979;DHT22;63430;53.186;6.598;2022-12-18T09:47:15;-3.90;99.90
52979;DHT22;63430;53.186;6.598;2022-12-18T09:49:22;-3.80;99.90
52979;DHT22;63430;53.186;6.598;2022-12-18T09:51:28;-3.80;99.90
52979;DHT22;63430;53.186;6.598;2022-12-18T09:53:37;-3.70;99.90
52979;DHT22;63430;53.186;6.598;2022-12-18T09:55:43;-3.70;99.90
52979;DHT22;63430;53.186;6.598;2022-12-18T09:57:52;-3.70;99.90
52979;DHT22;63430;53.186;6.598;2022-12-18T10:00:02;-3.60;99.90
52979;DHT22;63430;53.186;6.598;2022-12-18T10:02:17;-3.60;99.90
52979;DHT22;63430;53.186;6.598;2022-12-18T10:04:20;-3.60;99.90
52979;DHT22;63430;53.186;6.598;2022-12-18T10:06:27;-3.60;99.90
52979;DHT22;63430;53.186;6.598;2022-12-18T10:08:41;-3.60;99.90
52979;DHT22;63430;53.186;6.598;2022-12-18T10:10:49;-3.60;99.90
52979;DHT22;63430;53.186;6.598;2022-12-18T10:13:02;-3.50;99.90
52979;DHT22;63430;53.186;6.598;2022-12-18T10:15:15;-3.50;99.90
52979;DHT22;63430;53.186;6.598;2022-12-18T10:17:25;-3.40;99.90
52979;DHT22;63430;53.186;6.598;2022-12-18T10:19:38;-3.40;99.90
52979;DHT22;63430;53.186;6.598;2022-12-18T10:21:54;-3.40;99.90
52979;DHT22;63430;53.186;6.598;2022-12-18T10:24:16;-3.30;99.90
52979;DHT22;63430;53.186;6.598;2022-12-18T10:26:21;-3.20;99.90
52979;DHT22;63430;53.186;6.598;2022-12-18T10:28:27;-3.20;99.90
52979;DHT22;63430;53.186;6.598;2022-12-18T10:30:31;-3.10;99.90
52979;DHT22;63430;53.186;6.598;2022-12-18T10:32:37;-3.00;99.90
52979;DHT22;63430;53.186;6.598;2022-12-18T10:34:43;-2.90;99.90
52979;DHT22;63430;53.186;6.598;2022-12-18T10:36:51;-2.80;99.90
52979;DHT22;63430;53.186;6.598;2022-12-18T10:39:14;-2.90;99.90
52979;DHT22;63430;53.186;6.598;2022-12-18T10:41:25;-3.10;99.90
52979;DHT22;63430;53.186;6.598;2022-12-18T10:43:32;-3.00;99.90
52979;DHT22;63430;53.186;6.598;2022-12-18T10:45:35;-2.50;99.90
52979;DHT22;63430;53.186;6.598;2022-12-18T10:47:42;-2.90;99.90
52979;DHT22;63430;53.186;6.598;2022-12-18T10:49:49;-2.90;99.90
52979;DHT22;63430;53.186;6.598;2022-12-18T10:52:07;-2.90;99.90
52979;DHT22;63430;53.186;6.598;2022-12-18T10:54:21;-2.90;99.90
52979;DHT22;63430;53.186;6.598;2022-12-18T10:56:27;-2.80;99.90
52979;DHT22;63430;53.186;6.598;2022-12-18T10:58:31;-2.80;99.90
52979;DHT22;63430;53.186;6.598;2022-12-18T11:00:34;-2.80;99.90
52979;DHT22;63430;53.186;6.598;2022-12-18T11:02:38;-2.70;99.90
52979;DHT22;63430;53.186;6.598;2022-12-18T11:04:50;-2.70;99.90
52979;DHT22;63430;53.186;6.598;2022-12-18T11:06:58;-2.70;99.90
52979;DHT22;63430;53.186;6.598;2022-12-18T11:09:03;-2.60;99.90
52979;DHT22;63430;53.186;6.598;2022-12-18T11:11:20;-2.60;99.90
52979;DHT22;63430;53.186;6.598;2022-12-18T11:13:25;-2.30;99.90
52979;DHT22;63430;53.186;6.598;2022-12-18T11:15:30;-2.50;99.90
52979;DHT22;63430;53.186;6.598;2022-12-18T11:17:35;-2.50;99.90
52979;DHT22;63430;53.186;6.598;2022-12-18T11:19:39;-2.30;99.90
52979;DHT22;63430;53.186;6.598;2022-12-18T11:21:43;-2.40;99.90
52979;DHT22;63430;53.186;6.598;2022-12-18T11:23:47;-2.30;99.90
52979;DHT22;63430;53.186;6.598;2022-12-18T11:25:53;-2.30;99.90
52979;DHT22;63430;53.186;6.598;2022-12-18T11:28:01;-2.30;99.90
52979;DHT22;63430;53.186;6.598;2022-12-18T11:30:10;-2.30;99.90
52979;DHT22;63430;53.186;6.598;2022-12-18T11:32:29;-2.70;99.90
52979;DHT22;63430;53.186;6.598;2022-12-18T11:34:34;-2.20;99.90
52979;DHT22;63430;53.186;6.598;2022-12-18T11:36:41;-2.20;99.90
52979;DHT22;63430;53.186;6.598;2022-12-18T11:38:48;-2.10;99.90
52979;DHT22;63430;53.186;6.598;2022-12-18T11:40:56;-2.00;99.90
52979;DHT22;63430;53.186;6.598;2022-12-18T11:43:09;-2.10;99.90
52979;DHT22;63430;53.186;6.598;2022-12-18T11:45:27;-2.00;99.90
52979;DHT22;63430;53.186;6.598;2022-12-18T11:47:37;-2.00;99.90
52979;DHT22;63430;53.186;6.598;2022-12-18T11:49:41;-2.00;99.90
52979;DHT22;63430;53.186;6.598;2022-12-18T11:51:50;-2.00;99.90
52979;DHT22;63430;53.186;6.598;2022-12-18T11:53:55;-1.90;99.90
52979;DHT22;63430;53.186;6.598;2022-12-18T11:56:12;-1.90;99.90
52979;DHT22;63430;53.186;6.598;2022-12-18T11:58:39;-1.90;99.90
52979;DHT22;63430;53.186;6.598;2022-12-18T12:00:49;-1.90;99.90
52979;DHT22;63430;53.186;6.598;2022-12-18T12:03:15;-1.50;99.90
52979;DHT22;63430;53.186;6.598;2022-12-18T12:05:35;-1.80;99.90
52979;DHT22;63430;53.186;6.598;2022-12-18T12:07:46;-1.80;99.90
52979;DHT22;63430;53.186;6.598;2022-12-18T12:10:01;-1.80;99.90
52979;DHT22;63430;53.186;6.598;2022-12-18T12:12:16;-1.80;99.90
52979;DHT22;63430;53.186;6.598;2022-12-18T12:14:46;-1.80;99.90
52979;DHT22;63430;53.186;6.598;2022-12-18T12:17:01;-1.80;99.90
52979;DHT22;63430;53.186;6.598;2022-12-18T12:19:18;-1.80;99.90
52979;DHT22;63430;53.186;6.598;2022-12-18T12:21:28;-1.70;99.90
52979;DHT22;63430;53.186;6.598;2022-12-18T12:23:43;-1.70;99.90
52979;DHT22;63430;53.186;6.598;2022-12-18T12:25:51;-1.70;99.90
52979;DHT22;63430;53.186;6.598;2022-12-18T12:28:06;-1.70;99.90
52979;DHT22;63430;53.186;6.598;2022-12-18T12:30:22;-1.70;99.90
52979;DHT22;63430;53.186;6.598;2022-12-18T12:32:43;-1.70;99.90
52979;DHT22;63430;53.186;6.598;2022-12-18T12:34:54;-0.20;99.90
52979;DHT22;63430;53.186;6.598;2022-12-18T12:37:19;-2.20;99.90
52979;DHT22;63430;53.186;6.598;2022-12-18T12:39:30;-1.60;99.90
52979;DHT22;63430;53.186;6.598;2022-12-18T12:41:33;-1.60;99.90
52979;DHT22;63430;53.186;6.598;2022-12-18T12:43:58;-2.00;99.90
52979;DHT22;63430;53.186;6.598;2022-12-18T12:46:08;-1.50;99.90
52979;DHT22;63430;53.186;6.598;2022-12-18T12:48:20;-1.50;99.90
52979;DHT22;63430;53.186;6.598;2022-12-18T12:50:26;-1.50;99.90
52979;DHT22;63430;53.186;6.598;2022-12-18T12:52:33;-1.40;99.90
52979;DHT22;63430;53.186;6.598;2022-12-18T12:54:38;-1.40;99.90
52979;DHT22;63430;53.186;6.598;2022-12-18T12:56:50;-1.20;99.90
52979;DHT22;63430;53.186;6.598;2022-12-18T12:59:04;-1.00;99.90
52979;DHT22;63430;53.186;6.598;2022-12-18T13:01:20;-1.30;99.90
52979;DHT22;63430;53.186;6.598;2022-12-18T13:03:35;-1.40;99.90
52979;DHT22;63430;53.186;6.598;2022-12-18T13:05:45;-1.30;99.90
52979;DHT22;63430;53.186;6.598;2022-12-18T13:07:54;-1.30;99.90
52979;DHT22;63430;53.186;6.598;2022-12-18T13:10:25;-1.20;99.90
52979;DHT22;63430;53.186;6.598;2022-12-18T13:12:28;-1.20;99.90
52979;DHT22;63430;53.186;6.598;2022-12-18T13:15:12;-1.20;99.90
52979;DHT22;63430;53.186;6.598;2022-12-18T13:17:39;-1.20;99.90
52979;DHT22;63430;53.186;6.598;2022-12-18T13:19:43;-1.10;99.90
52979;DHT22;63430;53.186;6.598;2022-12-18T13:21:52;-1.10;99.90
52979;DHT22;63430;53.186;6.598;2022-12-18T13:24:23;-1.10;99.90